Time;durP1;ratioP1;P1;durP2;ratioP2;P2;SDS_P1;SDS_P2;PMS_P1;PMS_P2;Temp;Humidity;BMP_temperature;BMP_pressure;BME280_temperature;BME280_humidity;BME280_pressure;Samples;Min_cycle;Max_cycle;Signal;HPM_P1;HPM_P2
2022/10/31 00:01:12;;;;;;;4.60;3.50;;;17.90;79.30;;;;;;5014066;28;20483;-48
2022/10/31 00:03:48;;;;;;;3.30;2.93;;;17.90;79.40;;;;;;5044559;28;20824;-49
2022/10/31 00:06:26;;;;;;;4.23;2.87;;;17.90;79.30;;;;;;5033424;28;20467;-49
2022/10/31 00:09:19;;;;;;;3.63;3.00;;;17.90;79.40;;;;;;5043013;28;20434;-49
2022/10/31 00:11:52;;;;;;;3.60;3.27;;;17.90;79.30;;;;;;5048349;28;21050;-48
2022/10/31 00:14:31;;;;;;;3.60;3.10;;;17.90;79.60;;;;;;5051192;28;20534;-49
2022/10/31 00:17:26;;;;;;;3.60;3.30;;;17.90;79.50;;;;;;5028269;28;20463;-49
2022/10/31 00:20:26;;;;;;;4.33;2.87;;;17.90;79.50;;;;;;5045968;28;20441;-49
2022/10/31 00:23:11;;;;;;;4.67;3.40;;;17.90;79.50;;;;;;5043802;28;20469;-48
2022/10/31 00:25:47;;;;;;;3.60;3.27;;;17.90;79.50;;;;;;5033835;28;20826;-49
2022/10/31 00:28:24;;;;;;;3.67;3.37;;;17.90;79.70;;;;;;5038453;28;20434;-49
2022/10/31 00:31:16;;;;;;;5.77;3.60;;;17.90;79.70;;;;;;5027558;28;20465;-49
2022/10/31 00:33:50;;;;;;;7.30;3.87;;;17.90;79.70;;;;;;5042634;28;20495;-48
2022/10/31 00:36:42;;;;;;;4.03;3.50;;;17.90;79.60;;;;;;5138302;23;20467;-69
2022/10/31 00:46:08;;;;;;;3.83;3.53;;;17.90;79.70;;;;;;5021695;28;20451;-68
2022/10/31 00:49:19;;;;;;;5.17;3.07;;;17.90;79.80;;;;;;5100325;28;20469;-69
2022/10/31 00:52:09;;;;;;;3.93;3.63;;;17.90;79.70;;;;;;5071777;28;20934;-69
2022/10/31 00:54:43;;;;;;;4.80;3.17;;;17.90;79.70;;;;;;5088350;28;20506;-69
2022/10/31 00:57:27;;;;;;;3.03;2.70;;;17.90;79.80;;;;;;5090708;28;20513;-69
2022/10/31 01:00:12;;;;;;;2.83;2.37;;;17.90;79.80;;;;;;5083902;28;20456;-68
2022/10/31 01:02:41;;;;;;;3.90;2.87;;;17.90;79.90;;;;;;5076851;28;20478;-68
2022/10/31 01:05:45;;;;;;;3.43;3.10;;;17.80;79.80;;;;;;5062235;28;20437;-68
2022/10/31 01:08:34;;;;;;;4.30;3.53;;;17.90;79.90;;;;;;5072126;28;20461;-69
2022/10/31 01:11:11;;;;;;;3.30;2.40;;;17.90;80.00;;;;;;5073161;28;20532;-69
2022/10/31 01:13:47;;;;;;;3.50;3.20;;;17.90;80.10;;;;;;5070025;28;20436;-70
2022/10/31 01:16:18;;;;;;;3.37;3.07;;;17.90;80.00;;;;;;5070416;28;20460;-69
2022/10/31 01:18:51;;;;;;;3.40;3.00;;;17.90;80.00;;;;;;5070899;28;20461;-69
2022/10/31 01:21:22;;;;;;;2.90;2.70;;;17.90;80.10;;;;;;5070436;28;20443;-69
2022/10/31 01:23:55;;;;;;;4.20;3.33;;;17.90;80.00;;;;;;5102557;28;20433;-68
2022/10/31 01:26:26;;;;;;;3.50;3.17;;;17.90;80.10;;;;;;5086893;28;20553;-68
2022/10/31 01:29:33;;;;;;;3.60;2.83;;;17.90;80.00;;;;;;5067616;28;20476;-69
2022/10/31 01:32:21;;;;;;;3.20;2.80;;;17.90;79.90;;;;;;5089655;28;20501;-69
2022/10/31 01:39:13;;;;;;;3.60;3.23;;;17.80;80.00;;;;;;5036325;28;20468;-69
2022/10/31 01:46:18;;;;;;;2.80;2.40;;;17.80;80.00;;;;;;5079237;28;20436;-69
2022/10/31 01:49:24;;;;;;;3.30;2.67;;;17.80;80.10;;;;;;5095351;28;20983;-69
2022/10/31 01:55:43;;;;;;;3.63;2.30;;;17.80;80.10;;;;;;5045178;28;20438;-69
2022/10/31 02:02:15;;;;;;;6.53;4.00;;;17.80;80.20;;;;;;5072133;28;20606;-69
2022/10/31 02:04:49;;;;;;;3.87;3.43;;;17.80;80.00;;;;;;5090506;28;20452;-68
2022/10/31 02:08:27;;;;;;;3.53;2.90;;;17.80;80.10;;;;;;5062109;28;20472;-68
2022/10/31 02:11:13;;;;;;;2.90;2.70;;;17.80;80.00;;;;;;5100829;28;20865;-69
2022/10/31 02:14:26;;;;;;;3.17;2.87;;;17.80;80.10;;;;;;5086159;28;20433;-69
2022/10/31 02:17:47;;;;;;;4.70;2.97;;;17.80;80.20;;;;;;5054986;28;20560;-69
2022/10/31 02:20:19;;;;;;;3.13;2.87;;;17.80;80.20;;;;;;5077586;28;20553;-69
2022/10/31 02:23:22;;;;;;;3.30;2.80;;;17.80;80.10;;;;;;5078953;28;20472;-68
2022/10/31 02:26:44;;;;;;;4.03;3.00;;;17.80;80.00;;;;;;5091387;28;20444;-69
2022/10/31 02:37:18;;;;;;;2.87;2.60;;;17.80;80.00;;;;;;5085422;28;20471;-69
2022/10/31 02:40:03;;;;;;;3.90;2.60;;;17.80;80.10;;;;;;5089325;28;20520;-69
2022/10/31 02:43:14;;;;;;;2.83;2.57;;;17.80;80.00;;;;;;5081345;28;20603;-69
2022/10/31 02:53:02;;;;;;;2.60;2.40;;;17.70;80.00;;;;;;5027602;28;21176;-69
2022/10/31 02:56:15;;;;;;;3.30;3.00;;;17.70;80.10;;;;;;5012289;28;20481;-69
2022/10/31 03:13:31;;;;;;;3.47;3.17;;;17.70;79.90;;;;;;5019560;28;20469;-70
2022/10/31 03:16:35;;;;;;;4.43;3.90;;;17.70;79.90;;;;;;5052378;28;20504;-69
2022/10/31 03:19:18;;;;;;;3.60;3.10;;;17.70;80.10;;;;;;5075022;28;20452;-69
2022/10/31 03:25:44;;;;;;;3.53;2.80;;;17.70;79.80;;;;;;5035646;28;20447;-69
2022/10/31 03:35:51;;;;;;;5.00;2.87;;;17.70;79.70;;;;;;5084995;28;20439;-68
2022/10/31 03:38:55;;;;;;;3.00;2.63;;;17.70;79.70;;;;;;5071565;28;21022;-69
2022/10/31 03:41:50;;;;;;;5.10;3.30;;;17.70;79.70;;;;;;5064345;28;20472;-69
2022/10/31 03:44:57;;;;;;;5.73;3.37;;;17.70;79.60;;;;;;5055658;28;20491;-69
2022/10/31 03:47:59;;;;;;;4.20;3.17;;;17.60;79.50;;;;;;5065127;28;20504;-69
2022/10/31 03:54:07;;;;;;;3.87;3.00;;;17.60;79.80;;;;;;5082364;28;20822;-69
2022/10/31 04:00:19;;;;;;;2.97;2.30;;;17.60;79.90;;;;;;5094683;28;20483;-69
2022/10/31 04:06:49;;;;;;;2.73;2.53;;;17.60;79.90;;;;;;5047686;28;20877;-69
2022/10/31 04:09:42;;;;;;;3.47;3.13;;;17.60;79.80;;;;;;5077798;28;20456;-68
2022/10/31 04:12:27;;;;;;;3.83;3.03;;;17.60;81.10;;;;;;5085372;28;20474;-69
2022/10/31 04:16:14;;;;;;;3.50;3.10;;;17.60;79.70;;;;;;5062151;28;20456;-69
2022/10/31 04:19:59;;;;;;;3.90;3.17;;;17.60;79.70;;;;;;5050470;28;20454;-69
2022/10/31 04:22:59;;;;;;;3.90;3.00;;;17.60;79.70;;;;;;5098668;28;21072;-69
2022/10/31 04:31:03;;;;;;;3.43;3.13;;;17.60;79.60;;;;;;4993739;28;20437;-69
2022/10/31 04:34:52;;;;;;;3.13;2.80;;;17.60;79.80;;;;;;4962461;28;20832;-69
2022/10/31 04:37:43;;;;;;;5.80;3.37;;;17.60;79.90;;;;;;5026637;28;20895;-69
2022/10/31 04:40:59;;;;;;;4.00;3.17;;;17.60;80.00;;;;;;4989418;28;20526;-68
2022/10/31 04:44:29;;;;;;;3.20;2.90;;;17.60;80.00;;;;;;4990805;28;20564;-69
2022/10/31 04:51:29;;;;;;;4.60;2.90;;;17.50;80.00;;;;;;4973613;28;20480;-68
2022/10/31 04:54:31;;;;;;;3.50;2.50;;;17.50;80.00;;;;;;5023402;28;20437;-68
2022/10/31 04:57:32;;;;;;;3.33;3.03;;;17.60;80.10;;;;;;5024537;28;20471;-69
2022/10/31 05:00:16;;;;;;;3.70;3.00;;;17.50;80.00;;;;;;4998062;28;20456;-69
2022/10/31 05:03:01;;;;;;;2.70;2.50;;;17.50;79.90;;;;;;5007687;28;20696;-69
2022/10/31 05:05:45;;;;;;;4.47;2.77;;;17.50;80.00;;;;;;5012044;28;20435;-69
2022/10/31 05:08:31;;;;;;;4.57;2.87;;;17.60;80.00;;;;;;5014419;28;20467;-69
2022/10/31 05:11:05;;;;;;;2.90;2.60;;;17.50;80.00;;;;;;5087177;28;20465;-69
2022/10/31 05:13:41;;;;;;;3.10;2.77;;;17.50;80.00;;;;;;5070368;28;20848;-69
2022/10/31 05:16:12;;;;;;;2.87;2.50;;;17.60;80.20;;;;;;5088963;28;20429;-68
2022/10/31 05:19:03;;;;;;;2.93;2.30;;;17.50;81.40;;;;;;5089219;28;20544;-69
2022/10/31 05:22:05;;;;;;;2.90;2.70;;;17.50;80.10;;;;;;5069227;28;20464;-68
2022/10/31 05:24:36;;;;;;;2.57;2.37;;;17.50;80.20;;;;;;5071037;28;20437;-69
2022/10/31 05:27:07;;;;;;;3.17;2.70;;;17.50;80.30;;;;;;5069854;28;20822;-69
2022/10/31 05:29:44;;;;;;;3.10;2.80;;;17.50;80.10;;;;;;5062290;28;20466;-69
2022/10/31 05:32:48;;;;;;;3.67;3.37;;;17.50;80.10;;;;;;5075065;28;20555;-69
2022/10/31 05:35:47;;;;;;;2.90;2.20;;;17.50;80.10;;;;;;5086627;28;20936;-69
2022/10/31 05:43:25;;;;;;;2.83;2.63;;;17.50;80.20;;;;;;5084003;28;20485;-69
2022/10/31 05:45:56;;;;;;;2.60;2.40;;;17.50;80.30;;;;;;5070581;28;20417;-69
2022/10/31 05:48:47;;;;;;;4.30;2.80;;;17.50;80.40;;;;;;5074841;28;20563;-70
2022/10/31 05:55:43;;;;;;;3.30;2.77;;;17.50;80.30;;;;;;5085739;28;20516;-69
2022/10/31 05:58:21;;;;;;;2.37;2.03;;;17.50;80.30;;;;;;5092551;28;20480;-68
2022/10/31 06:01:05;;;;;;;2.73;2.50;;;17.50;80.40;;;;;;5077394;28;20851;-69
2022/10/31 06:04:23;;;;;;;4.10;3.13;;;17.50;80.40;;;;;;5070900;28;20449;-68
2022/10/31 06:07:43;;;;;;;2.50;2.20;;;17.40;80.20;;;;;;5099830;28;20984;-67
2022/10/31 06:10:16;;;;;;;2.70;2.50;;;17.40;80.20;;;;;;5095913;28;20482;-69
2022/10/31 06:36:16;;;;;;;2.90;2.60;;;17.40;80.10;;;;;;5108052;22;20573;-73
2022/10/31 06:38:45;;;;;;;3.13;2.83;;;17.40;80.00;;;;;;5049044;28;20479;-73
2022/10/31 06:41:15;;;;;;;3.23;3.03;;;17.40;80.20;;;;;;5044089;28;20454;-73
2022/10/31 07:55:33;;;;;;;5.93;4.43;;;17.30;80.90;;;;;;5041598;28;21242;-70
2022/10/31 07:58:05;;;;;;;5.20;3.50;;;17.20;80.80;;;;;;5064343;28;20474;-70
2022/10/31 08:00:37;;;;;;;5.60;3.70;;;17.30;81.00;;;;;;5065998;28;20482;-70
2022/10/31 08:03:08;;;;;;;3.90;3.33;;;17.20;80.80;;;;;;5064811;28;20466;-70
2022/10/31 08:05:58;;;;;;;4.13;3.20;;;17.20;80.80;;;;;;5033318;28;20494;-70
2022/10/31 08:08:48;;;;;;;5.70;3.73;;;17.20;80.80;;;;;;5064688;28;21069;-70
2022/10/31 08:11:20;;;;;;;5.07;3.27;;;17.30;80.80;;;;;;5066862;28;20463;-69
2022/10/31 08:13:50;;;;;;;4.10;3.30;;;17.20;80.70;;;;;;5037864;28;20449;-70
2022/10/31 08:16:20;;;;;;;5.83;3.73;;;17.30;80.80;;;;;;5049963;28;20797;-70
2022/10/31 08:19:00;;;;;;;6.77;4.43;;;17.20;81.00;;;;;;5035996;28;20495;-70
2022/10/31 08:21:30;;;;;;;6.67;3.47;;;17.20;81.00;;;;;;5065083;28;20438;-69
2022/10/31 08:23:59;;;;;;;4.70;3.90;;;17.20;81.00;;;;;;5043674;28;20450;-70
2022/10/31 08:26:32;;;;;;;6.23;3.80;;;17.20;81.10;;;;;;5041851;28;20997;-70
2022/10/31 08:29:01;;;;;;;6.53;4.40;;;17.20;82.50;;;;;;5031179;28;20468;-70
2022/10/31 08:31:33;;;;;;;4.67;4.00;;;17.20;81.10;;;;;;5041996;28;20925;-70
2022/10/31 08:34:46;;;;;;;5.77;4.10;;;17.20;81.00;;;;;;4987323;28;20984;-69
2022/10/31 08:37:33;;;;;;;5.67;5.17;;;17.20;81.20;;;;;;4976135;28;20481;-70
2022/10/31 08:40:05;;;;;;;6.10;4.33;;;17.20;81.30;;;;;;5018211;28;20462;-70
2022/10/31 08:42:41;;;;;;;5.60;3.77;;;17.20;81.30;;;;;;5031641;28;20475;-70
2022/10/31 08:45:11;;;;;;;5.07;4.20;;;17.20;81.40;;;;;;5044095;28;20513;-70
2022/10/31 08:47:40;;;;;;;7.50;4.70;;;17.20;81.50;;;;;;5035493;28;20463;-73
2022/10/31 08:50:10;;;;;;;5.23;4.70;;;17.20;81.60;;;;;;5040014;28;20459;-73
2022/10/31 08:52:40;;;;;;;7.83;4.80;;;17.20;81.60;;;;;;5035518;28;20497;-70
2022/10/31 08:55:30;;;;;;;4.97;3.37;;;17.20;81.60;;;;;;5044141;28;20434;-73
2022/10/31 08:58:04;;;;;;;4.23;3.83;;;17.20;82.10;;;;;;5055292;28;20468;-73
2022/10/31 09:00:44;;;;;;;5.10;4.27;;;17.20;82.00;;;;;;5033456;28;20436;-70
2022/10/31 09:03:21;;;;;;;6.60;4.60;;;17.20;82.20;;;;;;5027443;28;20788;-72
2022/10/31 09:05:55;;;;;;;5.00;4.43;;;17.20;82.30;;;;;;5042463;28;20454;-72
2022/10/31 09:08:24;;;;;;;8.40;4.93;;;17.20;82.60;;;;;;5035727;28;20804;-73
2022/10/31 09:10:57;;;;;;;4.47;3.87;;;17.20;82.70;;;;;;5030232;28;20482;-72
2022/10/31 09:13:46;;;;;;;5.00;3.70;;;17.20;82.50;;;;;;5052538;28;20451;-73
2022/10/31 09:16:36;;;;;;;6.50;5.00;;;17.20;82.40;;;;;;5006855;28;20466;-73
2022/10/31 09:19:06;;;;;;;4.33;3.93;;;17.20;82.40;;;;;;5037504;28;20989;-73
2022/10/31 09:21:39;;;;;;;4.27;3.63;;;17.20;82.20;;;;;;5040077;28;20452;-73
2022/10/31 09:24:11;;;;;;;4.30;3.80;;;17.20;82.30;;;;;;5063233;28;20439;-73
2022/10/31 09:26:42;;;;;;;6.73;3.80;;;17.20;82.20;;;;;;5032496;28;20502;-73
2022/10/31 09:29:21;;;;;;;5.23;3.60;;;17.20;82.10;;;;;;5034125;28;20462;-72
2022/10/31 09:31:59;;;;;;;5.13;4.00;;;17.20;82.00;;;;;;5058259;28;21071;-72
2022/10/31 09:35:08;;;;;;;7.20;4.87;;;17.20;81.90;;;;;;5044004;28;20429;-73
2022/10/31 09:37:36;;;;;;;5.70;4.30;;;17.20;82.10;;;;;;5037372;28;20517;-72
2022/10/31 09:40:06;;;;;;;6.33;4.00;;;17.20;81.80;;;;;;5068151;28;20464;-72
2022/10/31 09:42:53;;;;;;;5.03;3.77;;;17.20;81.70;;;;;;5061575;28;20491;-72
2022/10/31 09:45:34;;;;;;;4.47;4.07;;;17.20;81.80;;;;;;5036315;28;20495;-72
2022/10/31 09:48:32;;;;;;;5.97;3.90;;;17.20;81.90;;;;;;5069593;28;21165;-72
2022/10/31 09:51:17;;;;;;;3.73;3.40;;;17.20;82.10;;;;;;5071497;28;20813;-72
2022/10/31 09:54:25;;;;;;;4.30;3.90;;;17.20;81.80;;;;;;5049287;28;20446;-73
2022/10/31 09:56:56;;;;;;;6.30;3.57;;;17.20;81.80;;;;;;5035221;28;21048;-72
2022/10/31 09:59:31;;;;;;;6.37;3.50;;;17.20;81.80;;;;;;5026885;28;20992;-72
2022/10/31 10:02:06;;;;;;;4.87;3.70;;;17.20;81.80;;;;;;5032305;28;20570;-72
2022/10/31 10:04:42;;;;;;;4.10;3.70;;;17.20;81.70;;;;;;5040336;28;20798;-72
2022/10/31 10:07:28;;;;;;;4.70;3.70;;;17.20;81.80;;;;;;5027892;28;20463;-72
2022/10/31 10:10:18;;;;;;;5.70;3.50;;;17.20;81.80;;;;;;5053947;28;20517;-72
2022/10/31 10:13:46;;;;;;;5.40;4.13;;;17.20;81.80;;;;;;5035090;28;20592;-69
2022/10/31 10:16:43;;;;;;;3.83;3.00;;;17.20;81.80;;;;;;5062449;28;20528;-69
2022/10/31 10:19:57;;;;;;;3.93;3.50;;;17.20;81.90;;;;;;5063710;28;20461;-69
2022/10/31 10:22:38;;;;;;;5.47;3.53;;;17.20;81.70;;;;;;5035075;28;20882;-72
2022/10/31 10:25:21;;;;;;;4.90;3.50;;;17.20;82.00;;;;;;5057961;28;21126;-72
2022/10/31 10:28:09;;;;;;;5.50;3.60;;;17.20;82.10;;;;;;5028977;28;20475;-72
2022/10/31 10:30:41;;;;;;;4.40;4.00;;;17.20;82.00;;;;;;5042346;28;20462;-72
2022/10/31 10:33:13;;;;;;;5.23;4.40;;;17.20;82.00;;;;;;5038509;28;20431;-72
2022/10/31 10:35:48;;;;;;;5.10;3.77;;;17.20;82.00;;;;;;5060326;28;20447;-72
2022/10/31 10:38:24;;;;;;;4.33;3.50;;;17.20;82.20;;;;;;5043091;28;20476;-69
2022/10/31 10:40:54;;;;;;;5.77;4.30;;;17.20;82.10;;;;;;5045666;28;20490;-69
2022/10/31 10:43:28;;;;;;;5.07;3.53;;;17.20;82.00;;;;;;5072486;28;20447;-72
2022/10/31 10:49:18;;;;;;;4.73;3.80;;;17.20;81.90;;;;;;5026458;28;20478;-69
2022/10/31 10:51:58;;;;;;;3.97;3.57;;;17.20;82.10;;;;;;5059671;28;20461;-70
2022/10/31 10:54:56;;;;;;;5.27;4.20;;;17.20;82.20;;;;;;5032753;28;20441;-69
2022/10/31 10:57:48;;;;;;;3.73;3.33;;;17.20;82.30;;;;;;5033346;28;20454;-69
2022/10/31 11:00:21;;;;;;;4.00;3.07;;;17.20;82.20;;;;;;5033168;28;20463;-72
2022/10/31 11:02:51;;;;;;;6.60;4.03;;;17.20;82.20;;;;;;5049414;28;20454;-72
2022/10/31 11:05:27;;;;;;;6.70;4.20;;;17.20;82.50;;;;;;5061195;28;20940;-73
2022/10/31 11:07:57;;;;;;;5.20;4.30;;;17.20;82.30;;;;;;5049389;28;20486;-73
2022/10/31 11:10:27;;;;;;;5.17;4.67;;;17.20;82.50;;;;;;5051146;28;20514;-73
2022/10/31 11:13:04;;;;;;;4.70;3.90;;;17.20;82.60;;;;;;5036594;28;20478;-73
2022/10/31 11:15:37;;;;;;;5.80;3.43;;;17.20;82.50;;;;;;5033473;28;20442;-71
2022/10/31 11:18:07;;;;;;;5.33;4.77;;;17.20;82.30;;;;;;5047221;28;20459;-73
2022/10/31 11:20:37;;;;;;;5.30;4.80;;;17.20;83.80;;;;;;5036703;28;20545;-72
2022/10/31 11:23:19;;;;;;;7.07;4.30;;;17.20;83.90;;;;;;5029056;28;20474;-72
2022/10/31 11:25:56;;;;;;;8.20;5.20;;;17.20;84.00;;;;;;5051414;28;20445;-72
2022/10/31 11:28:26;;;;;;;5.13;4.20;;;17.20;84.10;;;;;;5022262;28;20503;-72
2022/10/31 11:30:57;;;;;;;7.50;5.00;;;17.20;83.80;;;;;;5052465;28;20449;-72
2022/10/31 11:33:31;;;;;;;4.90;3.97;;;17.20;83.70;;;;;;5055692;28;20470;-73
2022/10/31 11:36:19;;;;;;;4.43;4.03;;;17.20;83.60;;;;;;5020696;28;21081;-72
2022/10/31 11:38:55;;;;;;;4.53;3.83;;;17.20;83.60;;;;;;5036809;28;20553;-69
2022/10/31 11:41:28;;;;;;;5.97;3.93;;;17.20;83.60;;;;;;5043001;28;20477;-69
2022/10/31 11:44:00;;;;;;;4.40;4.00;;;17.10;83.30;;;;;;5046384;28;20501;-69
2022/10/31 11:46:35;;;;;;;7.50;4.87;;;17.10;83.30;;;;;;5027936;28;20470;-70
2022/10/31 11:49:05;;;;;;;6.03;3.60;;;17.10;83.30;;;;;;5042900;28;20461;-69
2022/10/31 11:51:35;;;;;;;6.53;3.80;;;17.20;83.40;;;;;;5052221;28;20437;-69
2022/10/31 11:54:40;;;;;;;5.83;4.40;;;17.20;83.40;;;;;;5038421;28;20801;-72
2022/10/31 11:57:34;;;;;;;5.40;3.07;;;17.10;83.10;;;;;;5007883;28;20545;-72
2022/10/31 12:00:31;;;;;;;7.70;4.90;;;17.10;83.00;;;;;;5071254;28;20448;-72
2022/10/31 12:03:22;;;;;;;4.40;3.83;;;17.20;84.10;;;;;;5042329;28;20219;-72
2022/10/31 12:06:04;;;;;;;5.27;3.57;;;17.20;83.70;;;;;;5041689;28;20543;-72
2022/10/31 12:08:43;;;;;;;3.80;3.43;;;17.20;83.60;;;;;;5050061;28;20463;-72
2022/10/31 12:12:11;;;;;;;4.47;3.60;;;17.20;83.60;;;;;;5023394;28;20470;-72
2022/10/31 12:14:58;;;;;;;4.30;3.07;;;17.20;83.60;;;;;;5056061;28;20496;-72
2022/10/31 12:17:36;;;;;;;4.03;3.70;;;17.10;83.40;;;;;;5039684;28;20474;-72
2022/10/31 12:20:19;;;;;;;5.33;4.03;;;17.10;83.50;;;;;;5073981;28;20482;-72
2022/10/31 12:22:56;;;;;;;4.07;3.40;;;17.10;83.40;;;;;;5050161;28;20470;-72
2022/10/31 12:25:38;;;;;;;4.80;3.37;;;17.10;83.30;;;;;;5027575;28;20446;-72
2022/10/31 12:28:41;;;;;;;4.80;4.27;;;17.10;83.30;;;;;;5059522;28;20469;-72
2022/10/31 12:31:31;;;;;;;9.60;3.40;;;17.10;83.50;;;;;;5055718;28;21036;-72
2022/10/31 12:34:31;;;;;;;6.03;3.30;;;17.10;83.30;;;;;;5040545;28;20473;-73
2022/10/31 12:37:07;;;;;;;5.60;3.60;;;17.10;83.40;;;;;;5075239;22;20476;-50
2022/10/31 12:39:45;;;;;;;4.80;3.20;;;17.10;83.60;;;;;;5046654;28;20440;-50
2022/10/31 12:42:23;;;;;;;5.17;4.10;;;17.10;83.40;;;;;;5055941;28;20486;-49
2022/10/31 12:45:14;;;;;;;4.30;3.30;;;17.10;83.50;;;;;;5016973;28;20974;-50
2022/10/31 12:48:02;;;;;;;6.90;3.70;;;17.10;83.50;;;;;;5011752;28;20474;-48
2022/10/31 12:50:44;;;;;;;5.50;3.13;;;17.10;83.60;;;;;;5011169;28;20448;-50
2022/10/31 12:53:33;;;;;;;4.37;3.20;;;17.10;83.50;;;;;;5002880;28;20499;-50
2022/10/31 12:56:16;;;;;;;3.73;3.10;;;17.10;83.50;;;;;;5027499;28;20489;-51
2022/10/31 12:58:48;;;;;;;5.50;3.73;;;17.10;83.40;;;;;;5012502;28;21068;-50
2022/10/31 13:01:22;;;;;;;4.90;3.53;;;17.10;83.40;;;;;;5036521;28;21035;-50
2022/10/31 13:03:56;;;;;;;4.67;3.23;;;17.10;83.50;;;;;;5033227;28;20583;-51
2022/10/31 13:06:30;;;;;;;4.87;3.17;;;17.10;83.50;;;;;;5017541;28;20730;-50
2022/10/31 13:09:03;;;;;;;3.80;3.03;;;17.10;83.60;;;;;;5042966;28;20451;-50
2022/10/31 13:11:35;;;;;;;4.37;3.20;;;17.10;83.40;;;;;;5025064;28;20534;-51
2022/10/31 13:14:08;;;;;;;4.50;3.63;;;17.10;83.50;;;;;;5022246;28;20439;-50
2022/10/31 13:16:40;;;;;;;4.23;3.77;;;17.10;83.40;;;;;;5020533;28;20441;-51
2022/10/31 13:19:14;;;;;;;3.70;3.40;;;17.10;83.40;;;;;;5031381;28;20800;-51
2022/10/31 13:21:56;;;;;;;3.50;3.20;;;17.10;83.50;;;;;;5029337;28;20466;-49
2022/10/31 13:24:33;;;;;;;9.17;3.50;;;17.10;83.50;;;;;;5027161;28;20943;-51
2022/10/31 13:27:10;;;;;;;3.90;3.57;;;17.10;83.50;;;;;;5009138;28;20466;-50
2022/10/31 13:29:44;;;;;;;3.60;3.30;;;17.10;83.50;;;;;;5011316;28;20444;-49
2022/10/31 13:32:14;;;;;;;3.83;3.30;;;17.10;83.50;;;;;;5045336;28;20567;-50
2022/10/31 13:34:48;;;;;;;4.40;3.40;;;17.10;83.40;;;;;;5013783;28;21996;-50
2022/10/31 13:37:24;;;;;;;4.13;2.83;;;17.10;83.40;;;;;;5004871;28;20507;-50
2022/10/31 13:40:14;;;;;;;3.60;3.30;;;17.10;83.40;;;;;;5034781;28;20447;-50
2022/10/31 13:42:54;;;;;;;4.07;3.23;;;17.10;83.50;;;;;;5012484;28;20469;-50
2022/10/31 13:45:24;;;;;;;5.97;3.00;;;17.10;83.50;;;;;;5020629;28;20454;-51
2022/10/31 13:48:00;;;;;;;4.80;3.40;;;17.10;83.60;;;;;;5009148;28;20615;-51
2022/10/31 13:50:31;;;;;;;5.50;3.20;;;17.10;83.60;;;;;;5043490;28;20957;-50
2022/10/31 13:53:21;;;;;;;4.23;3.53;;;17.10;83.60;;;;;;5020895;28;20729;-51
2022/10/31 13:55:51;;;;;;;3.07;2.77;;;17.10;83.60;;;;;;5012461;28;20857;-50
2022/10/31 13:58:24;;;;;;;4.43;3.77;;;17.10;83.50;;;;;;5012909;28;20474;-52
2022/10/31 14:01:04;;;;;;;3.20;2.90;;;17.10;83.70;;;;;;5016713;28;20489;-50
2022/10/31 14:03:36;;;;;;;3.43;3.13;;;17.10;83.60;;;;;;5008751;28;20467;-50
2022/10/31 14:06:36;;;;;;;4.00;3.10;;;17.10;83.60;;;;;;5014988;28;20441;-50
2022/10/31 14:09:05;;;;;;;5.63;3.37;;;17.10;83.70;;;;;;5029729;28;20950;-50
2022/10/31 14:11:34;;;;;;;6.03;3.70;;;17.10;83.70;;;;;;5010226;28;20476;-51
2022/10/31 14:14:12;;;;;;;4.17;3.20;;;17.10;83.70;;;;;;5048131;28;20452;-50
2022/10/31 14:16:45;;;;;;;7.10;3.80;;;17.10;83.80;;;;;;5030065;28;20491;-50
2022/10/31 14:19:20;;;;;;;3.17;2.87;;;17.10;83.80;;;;;;5027369;28;20483;-50
2022/10/31 14:21:49;;;;;;;4.10;3.00;;;17.10;83.80;;;;;;5042246;28;20994;-50
2022/10/31 14:24:37;;;;;;;4.10;2.90;;;17.10;83.70;;;;;;5040135;28;20950;-50
2022/10/31 14:27:44;;;;;;;4.87;3.20;;;17.10;83.80;;;;;;5016158;28;20467;-51
2022/10/31 14:30:18;;;;;;;4.23;3.53;;;17.10;83.80;;;;;;5002889;28;20554;-49
2022/10/31 14:32:54;;;;;;;3.20;2.90;;;17.10;83.70;;;;;;5037624;28;20502;-50
2022/10/31 14:35:30;;;;;;;3.23;2.93;;;17.10;83.80;;;;;;5021028;28;21001;-51
2022/10/31 14:38:18;;;;;;;4.10;3.63;;;17.10;83.80;;;;;;5020337;28;21034;-51
2022/10/31 14:41:05;;;;;;;6.10;3.07;;;17.10;83.80;;;;;;5026501;28;20756;-50
2022/10/31 14:44:05;;;;;;;4.00;3.07;;;17.10;84.10;;;;;;5009519;28;20985;-49
2022/10/31 14:46:44;;;;;;;6.40;3.80;;;17.10;83.90;;;;;;5025769;28;20480;-47
2022/10/31 14:49:31;;;;;;;20.73;16.43;;;17.10;83.70;;;;;;5044563;28;20450;-50
2022/10/31 14:52:02;;;;;;;13.00;9.80;;;17.10;85.90;;;;;;5007391;28;20902;-48
2022/10/31 14:54:34;;;;;;;14.27;10.10;;;17.20;87.00;;;;;;5013608;28;20463;-50
2022/10/31 14:57:07;;;;;;;14.73;10.90;;;17.10;86.40;;;;;;5036692;28;20484;-49
2022/10/31 14:59:39;;;;;;;15.60;10.47;;;17.20;86.50;;;;;;5023654;28;20446;-48
2022/10/31 15:02:15;;;;;;;12.60;7.53;;;17.10;86.50;;;;;;5011983;28;20561;-49
2022/10/31 15:04:46;;;;;;;9.03;7.33;;;17.20;85.70;;;;;;5030988;28;20427;-51
2022/10/31 15:07:19;;;;;;;7.00;6.07;;;17.20;85.90;;;;;;5027948;28;20528;-50
2022/10/31 15:09:59;;;;;;;7.97;6.00;;;17.20;86.50;;;;;;5023056;28;20985;-50
2022/10/31 15:12:30;;;;;;;9.50;6.23;;;17.20;86.70;;;;;;5019517;28;20862;-47
2022/10/31 15:15:11;;;;;;;10.20;6.17;;;17.20;86.80;;;;;;5019027;28;20433;-50
2022/10/31 15:17:45;;;;;;;7.90;5.80;;;17.10;86.70;;;;;;5058491;28;20490;-50
2022/10/31 15:20:19;;;;;;;9.30;6.93;;;17.10;86.50;;;;;;5028661;28;20428;-50
2022/10/31 15:22:50;;;;;;;7.67;5.30;;;17.10;86.40;;;;;;5037610;28;20982;-50
2022/10/31 15:25:20;;;;;;;6.40;5.50;;;17.10;86.40;;;;;;5049356;28;21022;-51
2022/10/31 15:27:49;;;;;;;10.07;5.37;;;17.10;86.30;;;;;;5039122;28;20562;-49
2022/10/31 15:30:20;;;;;;;8.10;6.30;;;17.10;86.30;;;;;;5039720;28;20522;-50
2022/10/31 15:32:49;;;;;;;9.03;6.33;;;17.10;86.20;;;;;;5051667;28;20491;-50
2022/10/31 15:35:27;;;;;;;8.17;5.57;;;17.10;86.20;;;;;;5042904;28;20443;-50
2022/10/31 15:37:58;;;;;;;6.50;4.60;;;17.10;86.10;;;;;;5049429;28;20470;-50
2022/10/31 15:40:28;;;;;;;7.23;5.27;;;17.10;86.20;;;;;;5042446;28;20431;-51
2022/10/31 15:42:59;;;;;;;6.63;5.00;;;17.10;86.00;;;;;;5034912;28;20505;-50
2022/10/31 15:45:29;;;;;;;8.03;5.53;;;17.10;86.00;;;;;;5053916;28;20418;-50
2022/10/31 15:48:01;;;;;;;7.30;5.60;;;17.10;86.00;;;;;;5036767;28;20490;-48
2022/10/31 15:50:35;;;;;;;4.97;4.50;;;17.10;86.10;;;;;;5053924;28;20964;-50
2022/10/31 15:53:07;;;;;;;8.50;5.50;;;17.10;86.30;;;;;;5023328;28;20466;-51
2022/10/31 15:55:39;;;;;;;6.67;5.00;;;17.10;86.10;;;;;;5045533;28;20449;-50
2022/10/31 15:58:14;;;;;;;7.27;5.23;;;17.10;86.10;;;;;;5041122;28;20977;-50
2022/10/31 16:00:43;;;;;;;7.00;5.67;;;17.10;86.00;;;;;;5033454;28;20431;-50
2022/10/31 16:03:25;;;;;;;6.70;4.90;;;17.10;86.10;;;;;;5013815;28;20480;-50
2022/10/31 16:05:55;;;;;;;6.20;4.37;;;17.10;86.10;;;;;;5042733;28;20422;-49
2022/10/31 16:08:34;;;;;;;5.30;4.80;;;17.10;86.10;;;;;;5032785;28;20451;-50
2022/10/31 16:11:19;;;;;;;4.73;4.20;;;17.10;86.00;;;;;;5044847;28;20477;-50
2022/10/31 16:14:00;;;;;;;7.73;5.40;;;17.10;86.10;;;;;;5040321;28;20447;-50
2022/10/31 16:16:30;;;;;;;5.33;4.53;;;17.10;86.00;;;;;;5037349;28;20431;-50
2022/10/31 16:19:06;;;;;;;6.87;4.90;;;17.10;86.00;;;;;;5033452;28;20514;-50
2022/10/31 16:21:37;;;;;;;9.73;5.40;;;17.10;86.00;;;;;;5039303;28;20500;-50
2022/10/31 16:24:19;;;;;;;11.77;5.70;;;17.10;86.10;;;;;;5033378;28;20515;-51
2022/10/31 16:26:53;;;;;;;6.83;5.30;;;17.10;85.90;;;;;;5051663;28;20446;-50
2022/10/31 16:29:33;;;;;;;6.43;4.77;;;17.10;86.00;;;;;;5038627;28;20444;-50
2022/10/31 16:32:02;;;;;;;8.40;5.13;;;17.10;86.00;;;;;;5036936;28;20499;-50
2022/10/31 16:34:30;;;;;;;4.33;3.93;;;17.10;85.90;;;;;;5045007;28;20813;-50
2022/10/31 16:36:59;;;;;;;5.73;3.53;;;17.10;85.80;;;;;;5040430;28;20483;-50
2022/10/31 16:39:29;;;;;;;7.57;5.13;;;17.10;85.80;;;;;;5030607;28;20443;-48
2022/10/31 16:41:58;;;;;;;9.70;4.20;;;17.10;85.60;;;;;;5045344;28;20557;-49
2022/10/31 16:44:27;;;;;;;6.10;4.53;;;17.10;85.20;;;;;;5027897;28;20851;-51
2022/10/31 16:47:10;;;;;;;5.70;4.10;;;17.10;85.30;;;;;;5048015;28;20466;-49
2022/10/31 16:49:39;;;;;;;5.50;4.03;;;17.10;85.40;;;;;;5044614;28;21664;-50
2022/10/31 16:52:08;;;;;;;6.13;3.40;;;17.10;85.70;;;;;;5028163;28;20479;-50
2022/10/31 16:54:38;;;;;;;10.00;5.20;;;17.10;85.80;;;;;;5027127;28;20439;-49
2022/10/31 16:57:08;;;;;;;8.83;5.50;;;17.10;86.60;;;;;;5044433;28;20239;-51
2022/10/31 16:59:36;;;;;;;6.73;4.43;;;17.10;86.40;;;;;;5027769;28;20447;-50
2022/10/31 17:02:05;;;;;;;9.13;4.90;;;17.10;86.30;;;;;;5029468;28;20506;-49
2022/10/31 17:04:34;;;;;;;9.33;4.80;;;17.10;86.10;;;;;;5025544;28;20439;-50
2022/10/31 17:07:03;;;;;;;5.80;4.20;;;17.10;85.90;;;;;;5043099;28;20471;-51
2022/10/31 17:09:32;;;;;;;6.27;4.43;;;17.10;85.90;;;;;;5026917;28;20439;-48
2022/10/31 17:12:02;;;;;;;11.90;5.13;;;17.10;85.60;;;;;;5029709;28;20578;-49